Airfield :
LOGIN :

Register | Disclaimer

   EN    FR    IT 

 










Legend :    VFR   Marginal VFR   IFR   Intensive IFR   Very Intensive IFR
Visi :
Ceiling :
>= 8 km
>= 3000ft
5 to 8 km
1000 to 3000 ft
1500m to 5 km
500 to 1000 ft
800 to 1500m
200 to 500 ft
< 800m
< 200 ft
Symbols :   Thunderstorms  Fog  Heavy snow  Heavy precipitations  Wind > 20 kt
SIGMETs :     Misc.  Thunderstorms  Icing  Turbulence  Mountain Waves  Volcanic Ashes






- Airport Elevation : 170 ft
- IATA code : KRP


EKKA - Karup

CURRENT METAR :
  • 231720Z AUTO 27013KT 9999 FEW027/// SCT040/// 05/01 Q0999

EXPIRED METARs :
  • 231650Z AUTO 27012KT 9999 NCD 04/01 Q0999
  • 231620Z 29012KT 9999 FEW020CB 05/01 Q0998
  • 231554Z 28013KT 9999 FEW018CB BKN025 SCT120 05/01 Q0998
  • 231520Z AUTO 29014KT 9999 FEW026/// 05/01 Q0998
  • 231450Z AUTO 28017KT 9999 FEW026/// 06/01 Q0997

TAF TAF EKKA
Valid from the 23 at 18:00 until the 24 at 18:00 UTC


231707Z 2318/2418 26010KT 9999 SCT020
TEMPO 2318/2323 27015G28KT 5000 SHRAGS FEW012 SCT020CB
BECMG 2407/2410 20005KT
BECMG 2415/2418 14012KT 4000 -RADZ BKN008



MET'MAP, your aeronautical weather chart ! - Copyright ORBIFLY December 2007 - Disclaimer

ORBIFLY MET'MAP TEAM :

Programming & Development : Alexandra Zaïnal
Concept & original design : Baudouin d'Aumeries
Assistance for programming : Marc-Olivier Méhu
Technical & hardware support : Manuel Goepfert

Contact : metmap@orbifly.com




SOURCES & CREDITS :

   NOAA